Current Conditions
Clear
Conditions



Rainfall
0.00 (mm) - 0.00 (in)
Pressure
29.91 (inHG) - 1012.92 (mb)
Visibility

10.0 (mimiles) - 16.1 (km)
   Temperature
81  °F
27°C
45  °F
Dewpoint
28  %
 Humidity
   Wind Speed
0  mph
0  kts
0  km/h
0  m/s
   Wind Direction
Calm
Due North
   Airport Data
KSNA
Location John Wayne-Orange County 15 mi (24.14 km)
Metar :KSNA 231753Z 00000KT 10SM CLR 27/07 A2991 RMK AO2 SLP126 T02720072 10278 20178 50002
Wed 23rd October 09:53 am
   Raw Metar Info
Raw METAR is the most common format in the world for the transmission of observational weather data. It is highly standardized through the International Civil Aviation Organization (ICAO), which allows it to be understood throughout most of the world.
   API Info
Data Provided by
https://www.checkwx.com/weather/KSNA
   © Info
CSS/SVG/PHP scripts were developed by weather34.com for use in the weather34 template © 2015-2019

Guide Info provided by Metar-Wikipedia